createdAt,value
2022-12-18T00:02:16.534Z,98185.44
2022-12-18T00:04:43.393Z,98173.31
2022-12-18T00:07:10.080Z,98180.50
2022-12-18T00:09:40.145Z,98178.88
2022-12-18T00:14:43.295Z,98184.44
2022-12-18T00:17:10.159Z,98195.31
2022-12-18T00:19:36.853Z,98178.06
2022-12-18T00:22:03.833Z,98194.50
2022-12-18T00:24:30.577Z,98201.47
2022-12-18T00:26:57.209Z,98211.34
2022-12-18T00:29:23.984Z,98215.03
2022-12-18T00:31:50.726Z,98218.75
2022-12-18T00:34:17.454Z,98215.47
2022-12-18T00:36:44.283Z,98230.25
2022-12-18T00:39:13.016Z,98219.16
2022-12-18T00:41:58.523Z,98225.31
2022-12-18T00:44:25.154Z,98236.81
2022-12-18T00:46:51.965Z,98241.56
2022-12-18T00:49:20.599Z,98247.09
2022-12-18T00:51:47.977Z,98243.00
2022-12-18T00:54:15.067Z,98252.22
2022-12-18T00:56:49.997Z,98250.38
2022-12-18T00:59:20.012Z,98248.50
2022-12-18T01:01:47.688Z,98259.00
2022-12-18T01:04:14.982Z,98259.19
2022-12-18T01:06:41.835Z,98264.72
2022-12-18T01:09:08.514Z,98260.63
2022-12-18T01:11:35.102Z,98264.53
2022-12-18T01:14:02.046Z,98260.41
2022-12-18T01:16:28.945Z,98267.59
2022-12-18T01:18:56.257Z,98265.75
2022-12-18T01:21:24.300Z,98273.75
2022-12-18T01:23:56.582Z,98286.06
2022-12-18T01:26:24.733Z,98276.41
2022-12-18T01:28:51.327Z,98285.06
2022-12-18T01:31:27.337Z,98294.06
2022-12-18T01:33:55.247Z,98294.06
2022-12-18T01:36:28.507Z,98289.75
2022-12-18T01:38:55.414Z,98305.78
2022-12-18T01:41:25.782Z,98295.72
2022-12-18T01:43:58.497Z,98303.31
2022-12-18T01:46:27.904Z,98306.59
2022-12-18T01:48:58.092Z,98301.06
2022-12-18T01:51:26.788Z,98317.28
2022-12-18T01:53:53.682Z,98316.47
2022-12-18T01:56:22.704Z,98319.75
2022-12-18T01:59:06.029Z,98311.13
2022-12-18T02:01:34.023Z,98319.38
2022-12-18T02:04:23.804Z,98318.13
2022-12-18T02:07:35.341Z,98325.13
2022-12-18T02:10:22.872Z,98327.97
2022-12-18T02:12:56.879Z,98319.38
2022-12-18T02:15:28.208Z,98332.28
2022-12-18T02:18:13.117Z,98339.06
2022-12-18T02:20:48.891Z,98329.44
2022-12-18T02:23:43.507Z,98338.47
2022-12-18T02:26:22.147Z,98338.88
2022-12-18T02:28:55.733Z,98335.78
2022-12-18T02:31:27.643Z,98349.53
2022-12-18T02:33:58.328Z,98349.72
2022-12-18T02:36:26.217Z,98349.31
2022-12-18T02:38:54.894Z,98347.03
2022-12-18T02:41:22.842Z,98354.41
2022-12-18T02:44:02.934Z,98361.81
2022-12-18T02:46:34.569Z,98358.88
2022-12-18T02:49:06.344Z,98360.53
2022-12-18T02:52:11.538Z,98366.44
2022-12-18T02:54:44.857Z,98372.63
2022-12-18T02:57:44.102Z,98371.97
2022-12-18T03:00:19.890Z,98376.50
2022-12-18T03:03:00.830Z,98372.38
2022-12-18T03:05:53.874Z,98377.53
2022-12-18T03:08:25.266Z,98377.53
2022-12-18T03:11:13.432Z,98377.97
2022-12-18T03:13:57.231Z,98387.59
2022-12-18T03:16:31.461Z,98383.47
2022-12-18T03:19:02.331Z,98398.28
2022-12-18T03:21:43.273Z,98398.28
2022-12-18T03:24:12.021Z,98407.47
2022-12-18T03:26:44.954Z,98412.44
2022-12-18T03:29:20.168Z,98418.41
2022-12-18T03:31:58.045Z,98409.13
2022-12-18T03:34:32.546Z,98413.06
2022-12-18T03:36:59.532Z,98415.53
2022-12-18T03:39:26.744Z,98427.66
2022-12-18T03:42:01.723Z,98430.94
2022-12-18T03:44:37.103Z,98431.56
2022-12-18T03:47:26.770Z,98441.22
2022-12-18T03:50:44.218Z,98444.72
2022-12-18T03:53:33.859Z,98447.75
2022-12-18T03:56:01.914Z,98462.97
2022-12-18T03:58:30.216Z,98452.28
2022-12-18T04:01:02.649Z,98465.84
2022-12-18T04:03:32.188Z,98465.19
2022-12-18T04:06:01.950Z,98469.09
2022-12-18T04:08:29.455Z,98464.16
2022-12-18T04:10:56.454Z,98461.88
2022-12-18T04:13:30.604Z,98457.94
2022-12-18T04:15:57.828Z,98468.41
2022-12-18T04:18:24.433Z,98474.38
2022-12-18T04:20:51.228Z,98480.53
2022-12-18T04:23:18.064Z,98488.72
2022-12-18T04:25:44.695Z,98485.63
2022-12-18T04:28:11.360Z,98488.06
2022-12-18T04:30:38.012Z,98489.47
2022-12-18T04:33:04.617Z,98498.28
2022-12-18T04:35:31.566Z,98505.28
2022-12-18T04:37:58.313Z,98504.66
2022-12-18T04:40:25.027Z,98507.66
2022-12-18T04:42:51.986Z,98512.38
2022-12-18T04:45:19.058Z,98516.81
2022-12-18T04:47:45.674Z,98520.88
2022-12-18T04:50:12.764Z,98525.81
2022-12-18T04:52:39.531Z,98527.88
2022-12-18T04:55:06.425Z,98539.78
2022-12-18T04:57:33.141Z,98538.31
2022-12-18T05:00:00.005Z,98545.50
2022-12-18T05:02:26.714Z,98541.00
2022-12-18T05:04:53.871Z,98543.88
2022-12-18T05:07:20.709Z,98551.22
2022-12-18T05:09:47.328Z,98562.69
2022-12-18T05:12:14.077Z,98558.59
2022-12-18T05:14:40.753Z,98560.03
2022-12-18T05:17:07.329Z,98561.06
2022-12-18T05:19:34.684Z,98570.91
2022-12-18T05:22:02.488Z,98580.31
2022-12-18T05:24:29.062Z,98588.22
2022-12-18T05:26:55.788Z,98583.84
2022-12-18T05:29:22.446Z,98589.16
2022-12-18T05:31:49.097Z,98598.19
2022-12-18T05:34:15.977Z,98598.56
2022-12-18T05:36:42.938Z,98607.13
2022-12-18T05:39:09.881Z,98603.19
2022-12-18T05:41:36.683Z,98610.75
2022-12-18T05:44:03.575Z,98602.66
2022-12-18T05:46:32.089Z,98612.03
2022-12-18T05:49:02.401Z,98618.94
2022-12-18T05:51:29.441Z,98628.56
2022-12-18T05:53:56.251Z,98629.59
2022-12-18T05:56:24.303Z,98638.41
2022-12-18T05:58:54.628Z,98630.41
2022-12-18T06:01:25.023Z,98638.41
2022-12-18T06:03:52.236Z,98645.22
2022-12-18T06:06:27.681Z,98635.13
2022-12-18T06:08:55.939Z,98654.47
2022-12-18T06:11:24.998Z,98656.13
2022-12-18T06:13:58.282Z,98665.41
2022-12-18T06:16:26.787Z,98663.75
2022-12-18T06:18:53.733Z,98674.25
2022-12-18T06:21:20.842Z,98677.53
2022-12-18T06:23:47.658Z,98673.84
2022-12-18T06:26:15.283Z,98677.16
2022-12-18T06:28:42.378Z,98672.19
2022-12-18T06:31:10.487Z,98690.69
2022-12-18T06:33:38.439Z,98695.00
2022-12-18T06:36:12.147Z,98691.88
2022-12-18T06:38:41.545Z,98695.81
2022-12-18T06:41:12.754Z,98694.25
2022-12-18T06:43:42.171Z,98701.41
2022-12-18T06:46:09.823Z,98700.88
2022-12-18T06:48:36.628Z,98707.19
2022-12-18T06:51:04.067Z,98709.31
2022-12-18T06:53:31.216Z,98715.47
2022-12-18T06:56:10.249Z,98718.97
2022-12-18T06:58:37.198Z,98715.47
2022-12-18T07:01:06.099Z,98720.81
2022-12-18T07:03:32.958Z,98733.09
2022-12-18T07:05:59.632Z,98735.56
2022-12-18T07:08:26.653Z,98743.41
2022-12-18T07:10:56.503Z,98747.09
2022-12-18T07:13:23.838Z,98745.03
2022-12-18T07:15:50.506Z,98752.41
2022-12-18T07:18:21.616Z,98755.09
2022-12-18T07:20:48.426Z,98753.59
2022-12-18T07:23:15.706Z,98759.31
2022-12-18T07:25:42.471Z,98757.00
2022-12-18T07:28:12.853Z,98762.53
2022-12-18T07:30:47.966Z,98776.47
2022-12-18T07:33:14.849Z,98777.50
2022-12-18T07:35:41.433Z,98780.16
2022-12-18T07:38:08.474Z,98771.16
2022-12-18T07:40:35.250Z,98775.28
2022-12-18T07:43:01.864Z,98785.41
2022-12-18T07:45:28.677Z,98780.72
2022-12-18T07:47:55.601Z,98795.34
2022-12-18T07:50:22.261Z,98799.94
2022-12-18T07:52:49.081Z,98792.31
2022-12-18T07:55:16.042Z,98787.34
2022-12-18T07:57:50.556Z,98809.94
2022-12-18T08:00:19.145Z,98814.25
2022-12-18T08:02:45.796Z,98813.91
2022-12-18T08:05:12.449Z,98824.84
2022-12-18T08:07:39.300Z,98824.09
2022-12-18T08:10:06.983Z,98821.44
2022-12-18T08:12:33.654Z,98831.56
2022-12-18T08:15:00.689Z,98831.09
2022-12-18T08:17:27.329Z,98838.44
2022-12-18T08:19:53.888Z,98841.56
2022-12-18T08:22:20.782Z,98834.41
2022-12-18T08:24:47.347Z,98845.06
2022-12-18T08:27:28.870Z,98842.59
2022-12-18T08:30:00.810Z,98852.81
2022-12-18T08:32:29.285Z,98854.34
2022-12-18T08:34:55.983Z,98854.25
2022-12-18T08:37:27.116Z,98845.72
2022-12-18T08:39:53.655Z,98852.69
2022-12-18T08:42:38.955Z,98855.09
2022-12-18T08:45:06.038Z,98850.28
2022-12-18T08:47:32.647Z,98851.09
2022-12-18T08:49:59.551Z,98851.09
2022-12-18T08:52:29.255Z,98852.78
2022-12-18T08:54:55.846Z,98852.03
2022-12-18T08:57:22.646Z,98850.03
2022-12-18T08:59:49.431Z,98849.22
2022-12-18T09:02:16.176Z,98840.91
2022-12-18T09:04:43.210Z,98859.56
2022-12-18T09:07:10.131Z,98854.25
2022-12-18T09:09:36.949Z,98861.50
2022-12-18T09:12:04.294Z,98855.72
2022-12-18T09:14:33.030Z,98850.75
2022-12-18T09:16:59.797Z,98855.91
2022-12-18T09:19:26.650Z,98860.44
2022-12-18T09:21:53.357Z,98856.44
2022-12-18T09:24:19.973Z,98857.66
2022-12-18T09:26:47.601Z,98862.53
2022-12-18T09:29:15.676Z,98862.69
2022-12-18T09:31:43.430Z,98882.56
2022-12-18T09:34:10.428Z,98877.03
2022-12-18T09:36:37.427Z,98865.00
2022-12-18T09:39:08.140Z,98872.63
2022-12-18T09:41:43.913Z,98870.16
2022-12-18T09:44:43.083Z,98868.66
2022-12-18T09:47:18.052Z,98864.72
2022-12-18T09:49:51.707Z,98873.06
2022-12-18T09:52:46.312Z,98870.13
2022-12-18T09:55:43.835Z,98868.00
2022-12-18T09:58:11.094Z,98869.56
2022-12-18T10:00:37.921Z,98867.72
2022-12-18T10:03:14.940Z,98875.16
2022-12-18T10:06:15.139Z,98874.59
2022-12-18T10:08:45.286Z,98872.41
2022-12-18T10:11:25.099Z,98875.53
2022-12-18T10:14:07.727Z,98871.50
2022-12-18T10:16:40.034Z,98875.84
2022-12-18T10:19:37.121Z,98888.44
2022-12-18T10:22:18.901Z,98879.91
2022-12-18T10:24:54.744Z,98873.19
2022-12-18T10:27:26.890Z,98869.97
2022-12-18T10:29:53.980Z,98877.63
2022-12-18T10:32:26.550Z,98871.91
2022-12-18T10:35:00.467Z,98878.53
2022-12-18T10:37:30.391Z,98871.38
2022-12-18T10:40:18.231Z,98871.16
2022-12-18T10:43:04.063Z,98882.31
2022-12-18T10:45:30.928Z,98883.50
2022-12-18T10:47:57.598Z,98867.41
2022-12-18T10:51:09.099Z,98878.91
2022-12-18T10:53:26.399Z,98880.09
2022-12-18T10:55:56.148Z,98877.25
2022-12-18T10:58:26.727Z,98880.19
2022-12-18T11:01:07.863Z,98885.63
2022-12-18T11:03:39.288Z,98891.78
2022-12-18T11:06:12.138Z,98880.84
2022-12-18T11:08:39.939Z,98889.22
2022-12-18T11:11:20.297Z,98892.03
2022-12-18T11:14:04.762Z,98895.81
2022-12-18T11:16:34.661Z,98894.44
2022-12-18T11:19:13.962Z,98896.75
2022-12-18T11:21:43.220Z,98891.69
2022-12-18T11:24:30.918Z,98891.31
2022-12-18T11:27:03.971Z,98898.13
2022-12-18T11:29:37.364Z,98898.59
2022-12-18T11:32:31.313Z,98901.53
2022-12-18T11:35:05.302Z,98910.19
2022-12-18T11:37:34.193Z,98907.13
2022-12-18T11:40:07.716Z,98912.09
2022-12-18T11:42:41.439Z,98913.56
2022-12-18T11:45:14.331Z,98905.56
2022-12-18T11:47:59.447Z,98920.56
2022-12-18T11:50:33.083Z,98911.72
2022-12-18T11:53:05.589Z,98910.34
2022-12-18T11:56:05.879Z,98908.34
2022-12-18T11:59:11.340Z,98910.44
2022-12-18T12:01:52.061Z,98909.63
2022-12-18T12:04:31.837Z,98914.84
2022-12-18T12:07:32.527Z,98922.28
2022-12-18T12:10:05.274Z,98921.81
2022-12-18T12:12:51.858Z,98921.56
2022-12-18T12:15:37.929Z,98919.94
2022-12-18T12:18:13.316Z,98930.69
2022-12-18T12:20:45.809Z,98928.75
2022-12-18T12:23:31.394Z,98934.47
2022-12-18T12:26:07.514Z,98943.66
2022-12-18T12:28:58.525Z,98938.16
2022-12-18T12:31:58.839Z,98943.47
2022-12-18T12:34:46.285Z,98950.19
2022-12-18T12:37:38.342Z,98949.09
2022-12-18T12:40:26.882Z,98964.81
2022-12-18T12:43:16.381Z,98959.66
2022-12-18T12:46:06.303Z,98959.03
2022-12-18T12:48:56.365Z,98963.69
2022-12-18T12:51:28.055Z,98969.38
2022-12-18T12:53:57.494Z,98962.28
2022-12-18T12:56:28.962Z,98981.25
2022-12-18T12:59:14.921Z,98985.78
2022-12-18T13:02:00.872Z,98978.75
2022-12-18T13:04:46.818Z,98978.97
2022-12-18T13:07:22.989Z,98983.75
2022-12-18T13:10:19.059Z,98988.16
2022-12-18T13:13:09.017Z,98984.47
2022-12-18T13:15:47.581Z,98983.50
2022-12-18T13:18:27.496Z,98961.94
2022-12-18T13:21:03.345Z,98985.59
2022-12-18T13:23:38.129Z,98980.53
2022-12-18T13:26:07.435Z,98989.81
2022-12-18T13:28:34.235Z,98990.28
2022-12-18T13:31:02.547Z,98994.66
2022-12-18T13:34:01.938Z,98995.28
2022-12-18T13:36:33.864Z,99001.25
2022-12-18T13:39:19.725Z,98996.94
2022-12-18T13:41:55.515Z,98999.16
2022-12-18T13:44:31.058Z,99004.66
2022-12-18T13:47:06.070Z,99009.16
2022-12-18T13:49:42.005Z,99010.34
2022-12-18T13:52:17.920Z,99014.94
2022-12-18T13:54:51.607Z,99018.53
2022-12-18T13:57:33.877Z,99013.75
2022-12-18T14:00:18.218Z,99014.09
2022-12-18T14:02:46.987Z,99019.13
2022-12-18T14:05:27.282Z,99019.78
2022-12-18T14:07:55.752Z,99019.13
2022-12-18T14:10:44.437Z,99025.19
2022-12-18T14:13:16.148Z,99026.56
2022-12-18T14:15:47.563Z,99032.41
2022-12-18T14:18:34.094Z,99029.94
2022-12-18T14:21:03.010Z,99031.47
2022-12-18T14:23:42.290Z,99032.00
2022-12-18T14:26:28.139Z,99033.69
2022-12-18T14:28:56.856Z,99042.66
2022-12-18T14:31:26.664Z,99042.19
2022-12-18T14:33:54.099Z,99054.00
2022-12-18T14:36:29.514Z,99043.34
2022-12-18T14:38:58.504Z,99049.50
2022-12-18T14:41:26.462Z,99055.47
2022-12-18T14:43:55.172Z,99051.34
2022-12-18T14:46:37.705Z,99046.34
2022-12-18T14:49:22.815Z,99047.00
2022-12-18T14:51:55.645Z,99051.34
2022-12-18T14:54:25.008Z,99054.47
2022-12-18T14:57:31.397Z,99058.44
2022-12-18T15:00:15.906Z,99058.91
2022-12-18T15:02:44.399Z,99062.22
2022-12-18T15:05:13.829Z,99068.41
2022-12-18T15:07:56.531Z,99069.56
2022-12-18T15:10:25.775Z,99069.25
2022-12-18T15:13:03.523Z,99077.25
2022-12-18T15:15:39.321Z,99082.97
2022-12-18T15:18:24.627Z,99087.44
2022-12-18T15:20:56.220Z,99085.78
2022-12-18T15:23:26.488Z,99089.28
2022-12-18T15:26:04.940Z,99099.13
2022-12-18T15:28:53.728Z,99094.63
2022-12-18T15:31:25.083Z,99106.78
2022-12-18T15:34:00.144Z,99104.59
2022-12-18T15:36:27.172Z,99101.72
2022-12-18T15:38:59.242Z,99106.91
2022-12-18T15:41:37.009Z,99110.59
2022-12-18T15:44:18.168Z,99107.59
2022-12-18T15:46:45.066Z,99114.56
2022-12-18T15:49:11.648Z,99117.63
2022-12-18T15:51:39.423Z,99137.59
2022-12-18T15:54:12.553Z,99133.09
2022-12-18T15:56:57.569Z,99134.75
2022-12-18T15:59:25.563Z,99141.72
2022-12-18T16:01:54.137Z,99139.25
2022-12-18T16:04:22.581Z,99141.09
2022-12-18T16:07:13.938Z,99150.72
2022-12-18T16:09:37.622Z,99156.88
2022-12-18T16:12:05.109Z,99152.75
2022-12-18T16:14:32.813Z,99167.56
2022-12-18T16:17:06.492Z,99167.56
2022-12-18T16:19:33.141Z,99163.91
2022-12-18T16:21:59.805Z,99173.84
2022-12-18T16:24:29.697Z,99167.53
2022-12-18T16:26:59.825Z,99173.50
2022-12-18T16:29:28.609Z,99171.03
2022-12-18T16:32:00.746Z,99178.63
2022-12-18T16:34:35.306Z,99173.28
2022-12-18T16:37:07.213Z,99170.91
2022-12-18T16:39:39.058Z,99176.53
2022-12-18T16:42:09.902Z,99181.69
2022-12-18T16:44:36.696Z,99177.00
2022-12-18T16:47:04.344Z,99165.97
2022-12-18T16:49:32.270Z,99172.00
2022-12-18T16:51:59.201Z,99157.16
2022-12-18T16:54:25.861Z,99168.78
2022-12-18T16:56:56.367Z,99161.59
2022-12-18T16:59:23.306Z,99177.06
2022-12-18T17:01:50.520Z,99168.91
2022-12-18T17:04:17.919Z,99172.88
2022-12-18T17:06:46.076Z,99171.03
2022-12-18T17:09:15.352Z,99166.50
2022-12-18T17:11:42.561Z,99165.06
2022-12-18T17:14:13.701Z,99173.69
2022-12-18T17:16:40.304Z,99186.88
2022-12-18T17:19:12.115Z,99173.53
2022-12-18T17:21:41.955Z,99175.81
2022-12-18T17:24:09.284Z,99187.50
2022-12-18T17:26:36.782Z,99190.38
2022-12-18T17:29:04.120Z,99196.22
2022-12-18T17:31:33.299Z,99197.22
2022-12-18T17:34:03.981Z,99195.59
2022-12-18T17:36:32.386Z,99202.41
2022-12-18T17:39:02.625Z,99203.88
2022-12-18T17:41:30.601Z,99199.56
2022-12-18T17:44:01.509Z,99201.56
2022-12-18T17:46:30.175Z,99197.59
2022-12-18T17:49:00.632Z,99205.44
2022-12-18T17:51:28.447Z,99209.63
2022-12-18T17:53:55.220Z,99199.31
2022-12-18T17:56:23.879Z,99212.47
2022-12-18T17:58:50.826Z,99214.47
2022-12-18T18:01:23.429Z,99211.34
2022-12-18T18:03:52.884Z,99216.66
2022-12-18T18:06:22.539Z,99221.66
2022-12-18T18:08:49.513Z,99223.31
2022-12-18T18:11:38.018Z,99214.31
2022-12-18T18:14:08.154Z,99207.69
2022-12-18T18:16:41.396Z,99214.97
2022-12-18T18:19:12.918Z,99211.28
2022-12-18T18:21:41.975Z,99216.25
2022-12-18T18:24:10.254Z,99213.25
2022-12-18T18:26:37.428Z,99215.91
2022-12-18T18:29:06.549Z,99212.91
2022-12-18T18:31:41.397Z,99214.06
2022-12-18T18:34:13.614Z,99212.41
2022-12-18T18:36:40.315Z,99210.56
2022-12-18T18:39:06.977Z,99223.09
2022-12-18T18:41:35.857Z,99228.97
2022-12-18T18:44:02.989Z,99228.66
2022-12-18T18:46:29.588Z,99229.38
2022-12-18T18:48:57.009Z,99235.34
2022-12-18T18:51:23.986Z,99248.69
2022-12-18T18:53:52.698Z,99252.19
2022-12-18T18:59:08.533Z,99247.84
2022-12-18T19:01:35.385Z,99252.03
2022-12-18T19:04:02.127Z,99256.34
2022-12-18T19:06:29.081Z,99261.19
2022-12-18T19:08:58.513Z,99267.88
2022-12-18T19:11:45.619Z,99268.41
2022-12-18T19:14:14.312Z,99267.28
2022-12-18T19:16:41.926Z,99267.81
2022-12-18T19:19:09.078Z,99274.50
2022-12-18T19:21:37.804Z,99264.16
2022-12-18T19:24:05.674Z,99272.84
2022-12-18T19:26:32.267Z,99279.00
2022-12-18T19:29:06.670Z,99275.13
2022-12-18T19:31:36.122Z,99271.81
2022-12-18T19:34:04.941Z,99276.16
2022-12-18T19:36:32.809Z,99277.16
2022-12-18T19:39:02.535Z,99276.50
2022-12-18T19:41:31.375Z,99275.13
2022-12-18T19:44:02.222Z,99288.94
2022-12-18T19:46:34.697Z,99284.81
2022-12-18T19:49:01.934Z,99290.50
2022-12-18T19:51:30.770Z,99300.81
2022-12-18T19:54:00.520Z,99298.66
2022-12-18T19:56:31.534Z,99306.66
2022-12-18T19:58:58.350Z,99297.53
2022-12-18T20:01:26.301Z,99300.53
2022-12-18T20:03:54.596Z,99294.69
2022-12-18T20:06:33.190Z,99295.22
2022-12-18T20:09:03.296Z,99295.25
2022-12-18T20:11:31.039Z,99295.09
2022-12-18T20:13:58.387Z,99295.97
2022-12-18T20:16:25.357Z,99301.31
2022-12-18T20:18:52.451Z,99297.66
2022-12-18T20:21:19.529Z,99314.00
2022-12-18T20:23:46.330Z,99313.63
2022-12-18T20:26:13.327Z,99313.00
2022-12-18T20:28:40.692Z,99318.31
2022-12-18T20:31:13.668Z,99316.81
2022-12-18T20:33:41.999Z,99314.00
2022-12-18T20:36:14.374Z,99312.66
2022-12-18T20:38:42.526Z,99316.50
2022-12-18T20:41:11.999Z,99318.00
2022-12-18T20:43:39.877Z,99318.00
2022-12-18T20:46:10.703Z,99315.31
2022-12-18T20:48:37.534Z,99307.34
2022-12-18T20:51:07.284Z,99308.81
2022-12-18T20:53:35.135Z,99316.50
2022-12-18T20:56:05.963Z,99322.66
2022-12-18T20:58:32.594Z,99317.00
2022-12-18T21:01:06.833Z,99324.81
2022-12-18T21:03:33.772Z,99331.47
2022-12-18T21:06:00.690Z,99331.31
2022-12-18T21:08:27.374Z,99336.97
2022-12-18T21:10:54.235Z,99344.81
2022-12-18T21:13:22.539Z,99336.81
2022-12-18T21:15:49.312Z,99341.31
2022-12-18T21:18:16.004Z,99346.97
2022-12-18T21:20:42.766Z,99338.97
2022-12-18T21:23:16.236Z,99338.47
2022-12-18T21:25:44.483Z,99341.66
2022-12-18T21:28:12.451Z,99341.47
2022-12-18T21:30:39.236Z,99343.47
2022-12-18T21:33:05.977Z,99345.47
2022-12-18T21:35:32.963Z,99346.78
2022-12-18T21:37:59.634Z,99336.47
2022-12-18T21:40:28.350Z,99327.97
2022-12-18T21:43:16.615Z,99326.28
2022-12-18T21:45:44.758Z,99334.44
2022-12-18T21:48:12.295Z,99339.59
2022-12-18T21:50:39.071Z,99337.75
2022-12-18T21:53:05.762Z,99345.72
2022-12-18T21:55:32.408Z,99347.19
2022-12-18T21:57:59.168Z,99358.50
2022-12-18T22:00:25.923Z,99360.13
2022-12-18T22:03:17.757Z,99354.31
2022-12-18T22:05:39.553Z,99365.41
2022-12-18T22:08:07.090Z,99367.22
2022-12-18T22:10:34.123Z,99353.78
2022-12-18T22:13:01.170Z,99357.25
2022-12-18T22:15:27.856Z,99363.03
2022-12-18T22:17:58.716Z,99367.00
2022-12-18T22:20:27.111Z,99356.03
2022-12-18T22:22:53.773Z,99356.03
2022-12-18T22:25:20.414Z,99355.00
2022-12-18T22:28:07.134Z,99355.81
2022-12-18T22:30:34.088Z,99356.44
2022-12-18T22:33:01.417Z,99344.94
2022-12-18T22:35:28.346Z,99367.22
2022-12-18T22:37:55.015Z,99361.69
2022-12-18T22:40:27.221Z,99374.81
2022-12-18T22:42:54.754Z,99374.16
2022-12-18T22:45:21.543Z,99366.66
2022-12-18T22:47:48.307Z,99359.59
2022-12-18T22:50:15.385Z,99369.22
2022-12-18T22:52:42.182Z,99374.88
2022-12-18T22:55:09.346Z,99357.03
2022-12-18T22:57:36.478Z,99361.69
2022-12-18T23:00:06.168Z,99373.84
2022-12-18T23:02:33.115Z,99368.97
2022-12-18T23:05:00.060Z,99367.63
2022-12-18T23:07:26.639Z,99358.59
2022-12-18T23:09:54.217Z,99373.88
2022-12-18T23:12:27.086Z,99371.34
2022-12-18T23:14:53.882Z,99363.19
2022-12-18T23:17:20.494Z,99356.84
2022-12-18T23:19:49.174Z,99366.09
2022-12-18T23:22:16.914Z,99367.69
2022-12-18T23:24:43.513Z,99371.31
2022-12-18T23:27:11.902Z,99367.28
2022-12-18T23:29:39.896Z,99369.28
2022-12-18T23:32:06.873Z,99367.06
2022-12-18T23:34:33.684Z,99365.41
2022-12-18T23:37:01.207Z,99373.13
2022-12-18T23:39:29.387Z,99366.47
2022-12-18T23:42:00.564Z,99365.09
2022-12-18T23:44:27.660Z,99375.19
2022-12-18T23:46:54.849Z,99381.31
2022-12-18T23:49:21.742Z,99389.28
2022-12-18T23:51:48.581Z,99376.31
2022-12-18T23:54:15.208Z,99376.78
2022-12-18T23:56:42.293Z,99373.59
2022-12-18T23:59:09.163Z,99378.22
